Time;durP1;ratioP1;P1;durP2;ratioP2;P2;SDS_P1;SDS_P2;PMS_P1;PMS_P2;Temp;Humidity;BMP_temperature;BMP_pressure;BME280_temperature;BME280_humidity;BME280_pressure;Samples;Min_cycle;Max_cycle;Signal;HPM_P1;HPM_P2
2023/03/23 04:06:23;;;;;;;;;60.25;47.25;;;;;;;;6285720;31;10000318;-65
2023/03/23 04:12:27;;;;;;;;;57.00;46.25;;;;;;;;6490395;39;8883;-64
2023/03/23 04:18:31;;;;;;;;;66.50;55.75;;;;;;;;6490359;39;8944;-63
2023/03/23 12:56:58;;;;;;;;;42.00;38.00;;;;;;;;4559171;39;26205130;-66
2023/03/23 13:03:18;;;;;;;;;44.67;40.00;;;;;;;;6484131;31;10943;-63
2023/03/23 13:09:35;;;;;;;;;50.33;41.67;;;;;;;;6483514;39;9045;-65
2023/03/23 13:15:48;;;;;;;;;51.67;43.00;;;;;;;;6484225;31;9014;-65
2023/03/23 13:22:21;;;;;;;;;47.33;40.00;;;;;;;;6487619;36;8879;-65
2023/03/23 13:28:31;;;;;;;;;54.33;41.33;;;;;;;;6484472;31;8983;-64
2023/03/23 13:34:35;;;;;;;;;41.00;37.67;;;;;;;;6487647;46;8899;-64
2023/03/23 13:40:43;;;;;;;;;46.00;39.00;;;;;;;;6488150;31;8970;-64
2023/03/23 13:47:16;;;;;;;;;50.00;41.67;;;;;;;;6488324;39;8990;-63
2023/03/23 13:53:46;;;;;;;;;47.33;39.33;;;;;;;;6488397;31;9050;-64
2023/03/23 13:59:55;;;;;;;;;47.00;39.00;;;;;;;;6488391;39;8963;-65
2023/03/23 14:05:57;;;;;;;;;50.00;41.00;;;;;;;;6487980;39;8917;-64
2023/03/23 14:12:08;;;;;;;;;51.67;42.33;;;;;;;;6488177;39;9028;-64
2023/03/23 14:18:15;;;;;;;;;47.33;39.33;;;;;;;;6488042;39;9094;-62
2023/03/23 14:24:23;;;;;;;;;50.00;40.00;;;;;;;;6486833;39;8949;-62
2023/03/23 14:30:36;;;;;;;;;49.00;38.00;;;;;;;;6485470;31;9007;-61
2023/03/23 14:36:40;;;;;;;;;49.00;40.33;;;;;;;;6487314;39;8956;-62
2023/03/23 14:42:43;;;;;;;;;42.67;37.00;;;;;;;;6486909;39;9028;-61
2023/03/23 14:48:45;;;;;;;;;47.00;40.67;;;;;;;;6488851;39;8898;-61
2023/03/23 14:54:50;;;;;;;;;44.67;39.00;;;;;;;;6485772;39;8922;-63
2023/03/23 15:01:00;;;;;;;;;45.67;39.00;;;;;;;;6487075;31;9036;-61
2023/03/23 15:07:05;;;;;;;;;51.33;43.67;;;;;;;;6487668;31;8925;-61
2023/03/23 15:13:12;;;;;;;;;52.50;41.00;;;;;;;;6487615;46;8988;-61
2023/03/23 15:19:20;;;;;;;;;52.67;43.67;;;;;;;;6488435;39;8929;-60
2023/03/23 15:25:31;;;;;;;;;54.00;42.33;;;;;;;;6487613;39;8946;-61
2023/03/23 15:31:38;;;;;;;;;51.67;43.00;;;;;;;;6488654;39;9021;-61
2023/03/23 15:37:57;;;;;;;;;55.00;46.25;;;;;;;;6487667;46;8976;-63
2023/03/23 15:44:30;;;;;;;;;51.50;42.25;;;;;;;;6488034;39;8940;-62
2023/03/23 15:50:35;;;;;;;;;53.50;44.00;;;;;;;;6487263;39;8913;-61
2023/03/23 15:56:37;;;;;;;;;56.75;46.25;;;;;;;;6488164;39;8977;-61
2023/03/23 16:02:40;;;;;;;;;57.50;48.75;;;;;;;;6487796;39;9056;-60
2023/03/23 16:08:45;;;;;;;;;63.00;50.25;;;;;;;;6488973;39;9040;-62
2023/03/23 16:14:55;;;;;;;;;57.50;46.50;;;;;;;;6490172;39;8912;-59
2023/03/23 16:20:58;;;;;;;;;61.75;48.50;;;;;;;;6489698;31;8983;-60
2023/03/23 16:27:00;;;;;;;;;57.25;46.50;;;;;;;;6492453;39;8906;-62
2023/03/23 16:33:05;;;;;;;;;65.25;53.00;;;;;;;;6493298;31;8897;-61
2023/03/23 16:39:11;;;;;;;;;56.00;46.25;;;;;;;;6492430;46;8877;-60
2023/03/23 16:45:14;;;;;;;;;60.75;49.50;;;;;;;;6493351;31;8822;-62
2023/03/23 16:51:18;;;;;;;;;60.00;48.25;;;;;;;;6490971;39;9065;-62
2023/03/23 16:57:21;;;;;;;;;62.50;50.50;;;;;;;;6490818;39;8838;-61
2023/03/23 17:03:26;;;;;;;;;67.00;54.00;;;;;;;;6490083;31;8953;-61
2023/03/23 17:09:30;;;;;;;;;60.25;50.75;;;;;;;;6490296;39;8926;-61
2023/03/23 17:15:35;;;;;;;;;64.25;51.75;;;;;;;;6488633;46;8921;-62
2023/03/23 17:21:39;;;;;;;;;62.75;51.00;;;;;;;;6490500;39;8913;-62
2023/03/23 17:27:41;;;;;;;;;68.00;55.00;;;;;;;;6490147;39;9617;-61
2023/03/23 17:33:44;;;;;;;;;64.00;52.75;;;;;;;;6490029;39;8917;-60
2023/03/23 17:39:46;;;;;;;;;71.25;56.00;;;;;;;;6490068;46;8933;-63
2023/03/23 17:45:48;;;;;;;;;62.75;51.25;;;;;;;;6489174;46;8925;-60
2023/03/23 17:51:51;;;;;;;;;65.25;50.75;;;;;;;;6489865;31;8941;-61
2023/03/23 17:57:55;;;;;;;;;61.25;50.50;;;;;;;;6489529;46;8957;-60
2023/03/23 18:03:58;;;;;;;;;64.50;52.00;;;;;;;;6490978;39;9103;-62
2023/03/23 18:10:00;;;;;;;;;64.50;51.00;;;;;;;;6491339;39;9640;-61
2023/03/23 18:16:07;;;;;;;;;60.50;50.00;;;;;;;;6490547;46;8854;-62
2023/03/23 18:22:13;;;;;;;;;65.00;53.25;;;;;;;;6489755;39;8869;-63
2023/03/23 18:28:16;;;;;;;;;63.50;50.25;;;;;;;;6489650;31;8866;-60
2023/03/23 18:34:19;;;;;;;;;60.25;52.00;;;;;;;;6490322;39;8901;-61
2023/03/23 18:40:22;;;;;;;;;62.33;51.00;;;;;;;;6490624;39;9557;-62
2023/03/23 18:46:26;;;;;;;;;61.25;51.00;;;;;;;;6489303;46;8983;-63
2023/03/23 18:52:30;;;;;;;;;58.00;50.25;;;;;;;;6489101;46;9184;-61
2023/03/23 18:58:33;;;;;;;;;65.25;53.50;;;;;;;;6490070;39;8956;-62
2023/03/23 19:04:36;;;;;;;;;65.50;53.00;;;;;;;;6490505;39;8933;-62
2023/03/23 19:10:41;;;;;;;;;65.75;54.00;;;;;;;;6490035;39;8901;-63
2023/03/23 19:16:43;;;;;;;;;67.00;53.75;;;;;;;;6830852;36;9111;-60
2023/03/23 19:22:48;;;;;;;;;69.25;56.50;;;;;;;;7836557;36;8889;-62
2023/03/23 19:28:53;;;;;;;;;70.75;56.50;;;;;;;;6489024;46;8909;-62
2023/03/23 19:35:20;;;;;;;;;68.25;54.00;;;;;;;;6489681;39;9514;-61
2023/03/23 19:41:23;;;;;;;;;61.75;52.00;;;;;;;;6490101;39;8854;-63
2023/03/23 19:47:25;;;;;;;;;64.25;52.75;;;;;;;;6489589;39;9581;-61
2023/03/23 19:53:28;;;;;;;;;64.00;51.75;;;;;;;;6489679;46;9017;-62
2023/03/23 19:59:35;;;;;;;;;66.50;52.25;;;;;;;;6490423;31;8881;-62
2023/03/23 20:05:40;;;;;;;;;66.50;53.50;;;;;;;;6490376;39;8885;-61
2023/03/23 20:11:46;;;;;;;;;67.25;55.00;;;;;;;;6489651;39;9040;-61
2023/03/23 20:17:48;;;;;;;;;66.50;54.00;;;;;;;;6489186;47;8901;-62
2023/03/23 20:23:56;;;;;;;;;67.25;55.50;;;;;;;;6489389;39;8900;-61
2023/03/23 20:29:59;;;;;;;;;69.50;54.50;;;;;;;;6488726;47;8906;-61
2023/03/23 20:36:03;;;;;;;;;64.75;52.75;;;;;;;;6489912;39;8854;-61
2023/03/23 20:42:06;;;;;;;;;66.00;53.00;;;;;;;;6488969;39;8900;-62
2023/03/23 20:48:09;;;;;;;;;62.00;51.75;;;;;;;;6488853;39;9016;-61
2023/03/23 20:54:15;;;;;;;;;61.25;50.00;;;;;;;;6490833;31;9017;-62
2023/03/23 21:00:18;;;;;;;;;63.75;50.75;;;;;;;;6490826;46;9031;-61
2023/03/23 21:06:20;;;;;;;;;63.00;48.50;;;;;;;;6491206;46;8903;-61
2023/03/23 21:12:22;;;;;;;;;65.50;53.75;;;;;;;;6491537;31;8913;-60
2023/03/23 21:18:25;;;;;;;;;66.75;52.50;;;;;;;;6491087;31;9010;-61
2023/03/23 21:24:30;;;;;;;;;61.00;50.00;;;;;;;;6489958;39;8894;-63
2023/03/23 21:30:36;;;;;;;;;62.25;50.00;;;;;;;;6490009;39;9032;-60
2023/03/23 21:36:39;;;;;;;;;62.25;49.50;;;;;;;;6490974;39;8927;-61
2023/03/23 21:42:44;;;;;;;;;62.50;51.50;;;;;;;;6490635;46;8946;-61
2023/03/23 21:48:51;;;;;;;;;59.00;49.00;;;;;;;;6489272;31;8917;-62
2023/03/23 21:54:58;;;;;;;;;52.50;43.50;;;;;;;;6491007;31;8889;-61
2023/03/23 22:01:04;;;;;;;;;60.50;50.00;;;;;;;;6490612;31;8952;-61
2023/03/23 22:07:06;;;;;;;;;62.00;51.00;;;;;;;;6491280;39;8825;-61
2023/03/23 22:13:10;;;;;;;;;67.00;51.50;;;;;;;;6490326;39;8960;-62
2023/03/23 22:19:13;;;;;;;;;60.75;50.50;;;;;;;;6489715;39;9898;-60
2023/03/23 22:25:17;;;;;;;;;66.25;53.50;;;;;;;;6490424;31;9612;-61
2023/03/23 22:31:23;;;;;;;;;60.25;50.75;;;;;;;;6490075;46;8909;-61
2023/03/23 22:37:26;;;;;;;;;67.75;52.50;;;;;;;;6490546;39;8888;-59
2023/03/23 22:43:29;;;;;;;;;66.75;53.75;;;;;;;;6490264;39;8889;-61
2023/03/23 22:49:33;;;;;;;;;63.00;50.00;;;;;;;;6490188;39;8894;-61
2023/03/23 22:55:44;;;;;;;;;63.00;52.25;;;;;;;;6489972;39;8960;-61
2023/03/23 23:01:48;;;;;;;;;63.75;50.00;;;;;;;;6489679;39;8937;-61
2023/03/23 23:07:50;;;;;;;;;61.00;49.50;;;;;;;;6489934;39;9672;-60
2023/03/23 23:13:52;;;;;;;;;58.75;49.50;;;;;;;;6490180;31;8866;-62
2023/03/23 23:19:57;;;;;;;;;51.50;44.75;;;;;;;;6488870;31;9135;-61
2023/03/23 23:26:01;;;;;;;;;64.00;49.00;;;;;;;;6489405;39;9565;-61
2023/03/23 23:32:03;;;;;;;;;58.50;48.75;;;;;;;;6489105;39;8862;-61
2023/03/23 23:38:08;;;;;;;;;58.50;46.50;;;;;;;;6489671;31;8893;-61
2023/03/23 23:44:11;;;;;;;;;49.50;43.50;;;;;;;;6489747;39;8850;-60
2023/03/23 23:50:15;;;;;;;;;59.25;46.75;;;;;;;;6490119;39;9001;-60
2023/03/23 23:56:20;;;;;;;;;52.50;44.25;;;;;;;;6490509;39;8897;-62
